Get Adobe Flash player

РУС

ENG

 
  Pireps - S7
 

Рейс SBIS7 2

  • Выполнял: Andrew Vyunov
  • Аэропорт отправления: Nizhny Novgorod (UWGG)
  • Аэропорт назначения: Domodedovo Airport (UUDD)
  • Тип ВС: A319-112 (VP-BHJ)
  • Время полёта: 02.37
  • Дата полёта: 03.08.2018
  • Маршрут: RP R480 CW R489 MF MF1D GEKLA
  • Статус: Одобрен

Детали полёта
Gross Revenue:
(109 load / $ 500.00 per unit
$ 54,500.00
Fuel Cost:
(-1854 fuel used @ 5.1 / unit)
($ -9,455.40)


Дополнительная информация о полёте:

Лог

Aircraft Used in flight is Airbus A320-214 CFM Sharklets Airbus house color
13:43 In Air Refuel Suspected
13:45 Engine 1 Started
13:45 Engine 2 Started
13:46Flaps 5 Selected at 260ft and 0kts
13:46Flaps 4 Selected at 260ft and 0kts
13:46Flaps 3 Selected at 260ft and 0kts
13:46 Landing Lights OFF at 260 AGL
13:46 Taxi Lights OFF at 260 AGL
13:47 Brakes are Released
13:48 You Took off @ 177 Knots and Flaps at Position 3
Departure Weather
UWGG 031030Z 29004MPS 250V320 9999 BKN033 29/13 Q1011 R36R/090070 NOSIGrn
13:48 Landing Gear Up @ 186 Knots and 370 Feet
13:48Flaps 2 Selected at 1290ft and 197kts
13:48Flaps 1 Selected at 1690ft and 196kts
13:49 Landing Lights ON at 3990 AGL
13:49 Landing Lights OFF at 4040 AGL
13:50Flaps Retracted at 6770ft and 222kts
14:35 Landing Lights ON at 3220 AGL
14:36Flaps 1 Selected at 2110ft and 216kts
14:37 Landing Gear Down @ 193 Knots and 1980 Feet
14:38Flaps 2 Selected at 1970ft and 193kts
14:38Flaps 3 Selected at 1990ft and 193kts
14:42Flaps 5 Selected at 1980ft and 195kts
14:45 You Landed @ 149 Knots and with -250 Vertical Speed
Arrival Weather
UUDD 031000Z 30004MPS 240V340 CAVOK 28/11 Q1016 R88/010095 NOSIGrn
14:45Flaps Retracted at 600ft and 48kts
14:46 Taxi Lights ON at 600 AGL
14:46 Landing Lights OFF at 600 AGL
14:46 Taxiing to gate
14:50 Brakes are On
14:50 Taxi Lights OFF at 600 AGL
14:50 Engine 1 Stoped
14:50 Engine 2 Stoped
14:51 Strobe Lights OFF at 600 AGL
14:51 Beacon Lights OFF at 600 AGL
14:51 Navigation Lights OFF at 600 AGL
Pirep logged with S7 Tracking 1.0.0.13


!!! Превышение допустимого значения вертикальной скорости при посадке: -5%


Общая оценка полета : 95%




Route Map



 
 
   
 
Новости

26.04.2018 - Полеты в X-PLANE

Наш клиент S7 Pad поддерживает полеты как в MFSX, Prepar3d V4, так и в X-PLANE 10 и 11 версиях!
На нашем сайте в разреде загруки есть плагин XPUIPIC for X-plane.
Приятных Вам полетов и мягких посадок!

   
 
Авторизация






Регистрация

Восстановить пароль?

Мы в соц. сетях

      



   
  TeamSpeak3 ts.va-s7.ru


   
 

   
 



   
 


Яндекс.Метрика

www.va-s7.ru 2011-2018
Все права защищены.



Минуточку внимания!
Мы не имеем отношения к торговым маркам "S7" и "Globus" и их представителям.
Эмблемы на сайте являются собственностью соответствующих компаний.

аэронавигационная метеорологическая и любая другая информация с данного ресурса ни в коем случае не должна использоваться для реальных полетов